sensor_id;sensor_type;location;lat;lon;timestamp;pressure;altitude;pressure_sealevel;temperature;humidity
74529;BME280;63009;52.584;5.932;2024-01-25T00:01:05;49987.91;;;-144.39;76.85
74529;BME280;63009;52.584;5.932;2024-01-25T00:03:31;49967.84;;;-144.39;77.16
74529;BME280;63009;52.584;5.932;2024-01-25T00:05:56;49977.88;;;-144.39;76.96
74529;BME280;63009;52.584;5.932;2024-01-25T00:08:22;49957.81;;;-144.39;76.95
74529;BME280;63009;52.584;5.932;2024-01-25T00:10:47;49975.88;;;-144.39;77.11
74529;BME280;63009;52.584;5.932;2024-01-25T00:13:12;49939.78;;;-144.39;76.80
74529;BME280;63009;52.584;5.932;2024-01-25T00:15:38;49941.78;;;-144.39;76.79
74529;BME280;63009;52.584;5.932;2024-01-25T00:18:03;49971.84;;;-144.39;76.81
74529;BME280;63009;52.584;5.932;2024-01-25T00:20:29;49959.81;;;-144.39;77.01
74529;BME280;63009;52.584;5.932;2024-01-25T00:22:54;49961.84;;;-144.39;76.70
74529;BME280;63009;52.584;5.932;2024-01-25T00:25:19;49937.75;;;-144.39;77.01
74529;BME280;63009;52.584;5.932;2024-01-25T00:27:44;49943.78;;;-144.39;76.49
74529;BME280;63009;52.584;5.932;2024-01-25T00:30:10;49959.81;;;-144.39;75.69
74529;BME280;63009;52.584;5.932;2024-01-25T00:32:35;49955.81;;;-144.39;76.02
74529;BME280;63009;52.584;5.932;2024-01-25T00:35:02;49967.84;;;-144.39;76.10
74529;BME280;63009;52.584;5.932;2024-01-25T00:37:27;49949.78;;;-144.39;75.53
74529;BME280;63009;52.584;5.932;2024-01-25T00:39:53;49989.91;;;-144.39;75.87
74529;BME280;63009;52.584;5.932;2024-01-25T00:42:21;49941.78;;;-144.39;76.06
74529;BME280;63009;52.584;5.932;2024-01-25T00:44:47;49953.81;;;-144.39;76.45
74529;BME280;63009;52.584;5.932;2024-01-25T00:47:13;49955.81;;;-144.39;75.83
74529;BME280;63009;52.584;5.932;2024-01-25T00:49:38;49949.78;;;-144.39;76.00
74529;BME280;63009;52.584;5.932;2024-01-25T00:52:04;49943.78;;;-144.39;75.96
74529;BME280;63009;52.584;5.932;2024-01-25T00:54:30;49943.78;;;-144.39;76.40
74529;BME280;63009;52.584;5.932;2024-01-25T00:56:56;49939.78;;;-144.39;75.86
74529;BME280;63009;52.584;5.932;2024-01-25T00:59:21;49967.84;;;-144.39;76.19
74529;BME280;63009;52.584;5.932;2024-01-25T01:01:47;49959.81;;;-144.39;76.16
74529;BME280;63009;52.584;5.932;2024-01-25T01:04:16;49953.81;;;-144.39;76.12
74529;BME280;63009;52.584;5.932;2024-01-25T01:06:42;49953.81;;;-144.39;76.65
74529;BME280;63009;52.584;5.932;2024-01-25T01:09:07;49949.78;;;-144.39;76.37
74529;BME280;63009;52.584;5.932;2024-01-25T01:11:33;49909.69;;;-144.39;76.50
74529;BME280;63009;52.584;5.932;2024-01-25T01:13:58;49983.91;;;-144.39;76.54
74529;BME280;63009;52.584;5.932;2024-01-25T01:16:24;49949.78;;;-144.39;76.66
74529;BME280;63009;52.584;5.932;2024-01-25T01:18:51;49939.78;;;-144.39;77.01
74529;BME280;63009;52.584;5.932;2024-01-25T01:21:16;49993.91;;;-144.39;77.08
74529;BME280;63009;52.584;5.932;2024-01-25T01:23:42;49983.91;;;-144.39;77.12
74529;BME280;63009;52.584;5.932;2024-01-25T01:26:07;49955.81;;;-144.39;77.32
74529;BME280;63009;52.584;5.932;2024-01-25T01:28:33;49959.81;;;-144.39;77.19
74529;BME280;63009;52.584;5.932;2024-01-25T01:31:00;49947.78;;;-144.39;77.32
74529;BME280;63009;52.584;5.932;2024-01-25T01:33:26;49957.81;;;-144.39;77.10
74529;BME280;63009;52.584;5.932;2024-01-25T01:35:51;49943.78;;;-144.39;77.57
74529;BME280;63009;52.584;5.932;2024-01-25T01:38:16;49971.84;;;-144.39;77.79
74529;BME280;63009;52.584;5.932;2024-01-25T01:40:44;49951.81;;;-144.39;77.70
74529;BME280;63009;52.584;5.932;2024-01-25T01:43:17;49943.78;;;-144.39;77.92
74529;BME280;63009;52.584;5.932;2024-01-25T01:45:43;49975.88;;;-144.39;77.84
74529;BME280;63009;52.584;5.932;2024-01-25T01:48:08;49955.81;;;-144.39;78.02
74529;BME280;63009;52.584;5.932;2024-01-25T01:50:34;49955.81;;;-144.39;78.46
74529;BME280;63009;52.584;5.932;2024-01-25T01:52:59;49963.84;;;-144.39;77.89
74529;BME280;63009;52.584;5.932;2024-01-25T01:55:26;49943.78;;;-144.39;77.91
74529;BME280;63009;52.584;5.932;2024-01-25T01:57:51;49961.84;;;-144.39;78.06
74529;BME280;63009;52.584;5.932;2024-01-25T02:00:17;49909.69;;;-144.39;78.31
74529;BME280;63009;52.584;5.932;2024-01-25T02:02:43;49971.84;;;-144.39;78.40
74529;BME280;63009;52.584;5.932;2024-01-25T02:05:10;49995.94;;;-144.39;78.96
74529;BME280;63009;52.584;5.932;2024-01-25T02:07:37;49955.81;;;-144.39;78.19
74529;BME280;63009;52.584;5.932;2024-01-25T02:10:03;49985.91;;;-144.39;77.96
74529;BME280;63009;52.584;5.932;2024-01-25T02:12:28;49955.81;;;-144.39;78.08
74529;BME280;63009;52.584;5.932;2024-01-25T02:14:55;49961.84;;;-144.39;78.32
74529;BME280;63009;52.584;5.932;2024-01-25T02:17:20;49941.78;;;-144.39;78.44
74529;BME280;63009;52.584;5.932;2024-01-25T02:19:45;49943.78;;;-144.39;78.42
74529;BME280;63009;52.584;5.932;2024-01-25T02:22:11;49935.75;;;-144.39;78.76
74529;BME280;63009;52.584;5.932;2024-01-25T02:24:36;49947.78;;;-144.39;78.67
74529;BME280;63009;52.584;5.932;2024-01-25T02:27:01;49945.78;;;-144.39;78.83
74529;BME280;63009;52.584;5.932;2024-01-25T02:29:28;49975.88;;;-144.39;78.59
74529;BME280;63009;52.584;5.932;2024-01-25T02:31:54;49939.78;;;-144.39;78.85
74529;BME280;63009;52.584;5.932;2024-01-25T02:34:19;49935.75;;;-144.39;78.81
74529;BME280;63009;52.584;5.932;2024-01-25T02:36:44;49959.81;;;-144.39;78.92
74529;BME280;63009;52.584;5.932;2024-01-25T02:39:10;49983.91;;;-144.39;78.67
74529;BME280;63009;52.584;5.932;2024-01-25T02:41:35;49945.78;;;-144.39;78.51
74529;BME280;63009;52.584;5.932;2024-01-25T02:44:00;49949.78;;;-144.39;78.65
74529;BME280;63009;52.584;5.932;2024-01-25T02:46:26;49977.88;;;-144.39;78.89
74529;BME280;63009;52.584;5.932;2024-01-25T02:48:51;49947.78;;;-144.39;78.92
74529;BME280;63009;52.584;5.932;2024-01-25T02:51:16;49937.75;;;-144.39;79.25
74529;BME280;63009;52.584;5.932;2024-01-25T02:53:42;49969.84;;;-144.39;79.37
74529;BME280;63009;52.584;5.932;2024-01-25T02:56:07;49917.72;;;-144.39;78.99
74529;BME280;63009;52.584;5.932;2024-01-25T02:58:35;49963.84;;;-144.39;79.46
74529;BME280;63009;52.584;5.932;2024-01-25T03:01:11;50024.00;;;-144.39;79.35
74529;BME280;63009;52.584;5.932;2024-01-25T03:03:36;49967.84;;;-144.39;80.06
74529;BME280;63009;52.584;5.932;2024-01-25T03:09:35;49987.91;;;-144.39;79.63
74529;BME280;63009;52.584;5.932;2024-01-25T03:12:01;49917.72;;;-144.39;79.77
74529;BME280;63009;52.584;5.932;2024-01-25T03:14:27;49971.84;;;-144.39;79.44
74529;BME280;63009;52.584;5.932;2024-01-25T03:16:52;49977.88;;;-144.39;79.62
74529;BME280;63009;52.584;5.932;2024-01-25T03:19:18;49957.81;;;-144.39;79.68
74529;BME280;63009;52.584;5.932;2024-01-25T03:21:43;49943.78;;;-144.39;79.61
74529;BME280;63009;52.584;5.932;2024-01-25T03:24:08;49971.84;;;-144.39;79.80
74529;BME280;63009;52.584;5.932;2024-01-25T03:26:34;49981.88;;;-144.39;79.48
74529;BME280;63009;52.584;5.932;2024-01-25T03:28:59;49981.88;;;-144.39;79.91
74529;BME280;63009;52.584;5.932;2024-01-25T03:31:24;49951.81;;;-144.39;80.04
74529;BME280;63009;52.584;5.932;2024-01-25T03:33:50;49923.72;;;-144.39;80.27
74529;BME280;63009;52.584;5.932;2024-01-25T03:36:15;49939.78;;;-144.39;80.60
74529;BME280;63009;52.584;5.932;2024-01-25T03:38:40;49967.84;;;-144.39;81.01
74529;BME280;63009;52.584;5.932;2024-01-25T03:41:06;49979.88;;;-144.39;80.57
74529;BME280;63009;52.584;5.932;2024-01-25T03:43:31;49959.81;;;-144.39;80.89
74529;BME280;63009;52.584;5.932;2024-01-25T03:45:56;49923.72;;;-144.39;81.01
74529;BME280;63009;52.584;5.932;2024-01-25T03:48:22;49949.78;;;-144.39;80.87
74529;BME280;63009;52.584;5.932;2024-01-25T03:50:47;49971.84;;;-144.39;81.02
74529;BME280;63009;52.584;5.932;2024-01-25T03:53:13;49951.81;;;-144.39;80.85
74529;BME280;63009;52.584;5.932;2024-01-25T03:55:38;49985.91;;;-144.39;80.76
74529;BME280;63009;52.584;5.932;2024-01-25T03:58:03;49961.84;;;-144.39;81.06
74529;BME280;63009;52.584;5.932;2024-01-25T04:00:29;49981.88;;;-144.39;81.06
74529;BME280;63009;52.584;5.932;2024-01-25T04:02:54;49945.78;;;-144.39;81.30
74529;BME280;63009;52.584;5.932;2024-01-25T04:05:20;49939.78;;;-144.39;81.59
74529;BME280;63009;52.584;5.932;2024-01-25T04:07:45;49975.88;;;-144.39;81.57
74529;BME280;63009;52.584;5.932;2024-01-25T04:10:11;49947.78;;;-144.39;81.51
74529;BME280;63009;52.584;5.932;2024-01-25T04:12:36;49951.81;;;-144.39;81.71
74529;BME280;63009;52.584;5.932;2024-01-25T04:15:01;49943.78;;;-144.39;81.82
74529;BME280;63009;52.584;5.932;2024-01-25T04:17:27;49967.84;;;-144.39;81.67
74529;BME280;63009;52.584;5.932;2024-01-25T04:19:52;49931.75;;;-144.39;81.88
74529;BME280;63009;52.584;5.932;2024-01-25T04:22:17;49985.91;;;-144.39;82.04
74529;BME280;63009;52.584;5.932;2024-01-25T04:24:43;49983.91;;;-144.39;82.02
74529;BME280;63009;52.584;5.932;2024-01-25T04:27:09;49963.84;;;-144.39;82.08
74529;BME280;63009;52.584;5.932;2024-01-25T04:29:38;49951.81;;;-144.39;82.51
74529;BME280;63009;52.584;5.932;2024-01-25T04:32:04;49959.81;;;-144.39;82.40
74529;BME280;63009;52.584;5.932;2024-01-25T04:34:30;49917.72;;;-144.39;82.40
74529;BME280;63009;52.584;5.932;2024-01-25T04:36:55;49925.72;;;-144.39;82.34
74529;BME280;63009;52.584;5.932;2024-01-25T04:39:20;49989.91;;;-144.39;82.46
74529;BME280;63009;52.584;5.932;2024-01-25T04:41:46;49957.81;;;-144.39;82.31
74529;BME280;63009;52.584;5.932;2024-01-25T04:44:11;49945.78;;;-144.39;82.40
74529;BME280;63009;52.584;5.932;2024-01-25T04:46:36;49957.81;;;-144.39;82.62
74529;BME280;63009;52.584;5.932;2024-01-25T04:49:03;49977.88;;;-144.39;82.42
74529;BME280;63009;52.584;5.932;2024-01-25T04:51:28;49957.81;;;-144.39;82.40
74529;BME280;63009;52.584;5.932;2024-01-25T04:53:54;49949.78;;;-144.39;82.30
74529;BME280;63009;52.584;5.932;2024-01-25T04:56:19;49979.88;;;-144.39;81.89
74529;BME280;63009;52.584;5.932;2024-01-25T04:58:44;49991.91;;;-144.39;81.82
74529;BME280;63009;52.584;5.932;2024-01-25T05:01:10;49977.88;;;-144.39;81.90
74529;BME280;63009;52.584;5.932;2024-01-25T05:03:35;49993.91;;;-144.39;82.18
74529;BME280;63009;52.584;5.932;2024-01-25T05:06:01;49921.72;;;-144.39;81.38
74529;BME280;63009;52.584;5.932;2024-01-25T05:08:26;50005.97;;;-144.39;81.74
74529;BME280;63009;52.584;5.932;2024-01-25T05:10:52;49985.91;;;-144.39;81.71
74529;BME280;63009;52.584;5.932;2024-01-25T05:13:18;49971.84;;;-144.39;82.10
74529;BME280;63009;52.584;5.932;2024-01-25T05:15:43;49949.78;;;-144.39;81.80
74529;BME280;63009;52.584;5.932;2024-01-25T05:18:09;49963.84;;;-144.39;81.82
74529;BME280;63009;52.584;5.932;2024-01-25T05:20:34;49969.84;;;-144.39;82.16
74529;BME280;63009;52.584;5.932;2024-01-25T05:23:02;49937.75;;;-144.39;82.06
74529;BME280;63009;52.584;5.932;2024-01-25T05:25:28;49921.72;;;-144.39;81.82
74529;BME280;63009;52.584;5.932;2024-01-25T05:27:55;49969.84;;;-144.39;81.79
74529;BME280;63009;52.584;5.932;2024-01-25T05:30:21;49949.78;;;-144.39;81.45
74529;BME280;63009;52.584;5.932;2024-01-25T05:32:46;49927.75;;;-144.39;81.61
74529;BME280;63009;52.584;5.932;2024-01-25T05:35:13;49971.84;;;-144.39;81.81
74529;BME280;63009;52.584;5.932;2024-01-25T05:37:39;49961.84;;;-144.39;81.91
74529;BME280;63009;52.584;5.932;2024-01-25T05:40:04;49977.88;;;-144.39;82.03
74529;BME280;63009;52.584;5.932;2024-01-25T05:42:30;49945.78;;;-144.39;81.70
74529;BME280;63009;52.584;5.932;2024-01-25T05:44:56;49931.75;;;-144.39;81.63
74529;BME280;63009;52.584;5.932;2024-01-25T05:47:21;49963.84;;;-144.39;81.45
74529;BME280;63009;52.584;5.932;2024-01-25T05:49:46;49967.84;;;-144.39;81.55
74529;BME280;63009;52.584;5.932;2024-01-25T05:52:12;49983.91;;;-144.39;81.27
74529;BME280;63009;52.584;5.932;2024-01-25T05:54:37;49973.88;;;-144.39;81.30
74529;BME280;63009;52.584;5.932;2024-01-25T05:57:03;49967.84;;;-144.39;81.29
74529;BME280;63009;52.584;5.932;2024-01-25T05:59:29;49975.88;;;-144.39;81.16
74529;BME280;63009;52.584;5.932;2024-01-25T06:01:55;49985.91;;;-144.39;81.06
74529;BME280;63009;52.584;5.932;2024-01-25T06:04:20;49955.81;;;-144.39;81.33
74529;BME280;63009;52.584;5.932;2024-01-25T06:06:46;49971.84;;;-144.39;81.26
74529;BME280;63009;52.584;5.932;2024-01-25T06:09:11;50003.94;;;-144.39;81.50
74529;BME280;63009;52.584;5.932;2024-01-25T06:11:37;49975.88;;;-144.39;81.72
74529;BME280;63009;52.584;5.932;2024-01-25T06:14:04;49957.81;;;-144.39;81.65
74529;BME280;63009;52.584;5.932;2024-01-25T06:16:30;49991.91;;;-144.39;81.74
74529;BME280;63009;52.584;5.932;2024-01-25T06:18:56;49951.81;;;-144.39;81.92
74529;BME280;63009;52.584;5.932;2024-01-25T06:21:21;49991.91;;;-144.39;81.69
74529;BME280;63009;52.584;5.932;2024-01-25T06:23:46;49967.84;;;-144.39;82.01
74529;BME280;63009;52.584;5.932;2024-01-25T06:26:12;49983.91;;;-144.39;81.93
74529;BME280;63009;52.584;5.932;2024-01-25T06:28:37;49953.81;;;-144.39;82.01
74529;BME280;63009;52.584;5.932;2024-01-25T06:31:02;49939.78;;;-144.39;82.11
74529;BME280;63009;52.584;5.932;2024-01-25T06:33:28;49943.78;;;-144.39;81.82
74529;BME280;63009;52.584;5.932;2024-01-25T06:35:54;49953.81;;;-144.39;81.75
74529;BME280;63009;52.584;5.932;2024-01-25T06:38:19;49969.84;;;-144.39;82.13
74529;BME280;63009;52.584;5.932;2024-01-25T06:40:45;49955.81;;;-144.39;81.80
74529;BME280;63009;52.584;5.932;2024-01-25T06:43:10;49943.78;;;-144.39;81.81
74529;BME280;63009;52.584;5.932;2024-01-25T06:45:37;49967.84;;;-144.39;81.97
74529;BME280;63009;52.584;5.932;2024-01-25T06:48:05;49961.84;;;-144.39;82.03
74529;BME280;63009;52.584;5.932;2024-01-25T06:50:30;49949.78;;;-144.39;82.24
74529;BME280;63009;52.584;5.932;2024-01-25T06:52:56;49955.81;;;-144.39;82.22
74529;BME280;63009;52.584;5.932;2024-01-25T06:55:21;49947.78;;;-144.39;82.18
74529;BME280;63009;52.584;5.932;2024-01-25T06:57:47;49947.78;;;-144.39;82.17
74529;BME280;63009;52.584;5.932;2024-01-25T07:00:13;49987.91;;;-144.39;82.33
74529;BME280;63009;52.584;5.932;2024-01-25T07:02:40;49949.78;;;-144.39;82.56
74529;BME280;63009;52.584;5.932;2024-01-25T07:05:06;49987.91;;;-144.39;82.28
74529;BME280;63009;52.584;5.932;2024-01-25T07:07:32;49917.72;;;-144.39;82.48
74529;BME280;63009;52.584;5.932;2024-01-25T07:09:58;49971.84;;;-144.39;82.90
74529;BME280;63009;52.584;5.932;2024-01-25T07:12:23;49949.78;;;-144.39;83.05
74529;BME280;63009;52.584;5.932;2024-01-25T07:14:48;49937.75;;;-144.39;83.35
74529;BME280;63009;52.584;5.932;2024-01-25T07:17:14;49943.78;;;-144.39;83.64
74529;BME280;63009;52.584;5.932;2024-01-25T07:19:39;49975.88;;;-144.39;82.76
74529;BME280;63009;52.584;5.932;2024-01-25T07:22:04;49927.75;;;-144.39;83.01
74529;BME280;63009;52.584;5.932;2024-01-25T07:24:30;49973.88;;;-144.39;83.09
74529;BME280;63009;52.584;5.932;2024-01-25T07:26:56;49943.78;;;-144.39;82.89
74529;BME280;63009;52.584;5.932;2024-01-25T07:29:21;49975.88;;;-144.39;83.77
74529;BME280;63009;52.584;5.932;2024-01-25T07:31:46;49951.81;;;-144.39;83.56
74529;BME280;63009;52.584;5.932;2024-01-25T07:34:12;49937.75;;;-144.39;83.55
74529;BME280;63009;52.584;5.932;2024-01-25T07:36:37;49953.81;;;-144.39;83.17
74529;BME280;63009;52.584;5.932;2024-01-25T07:39:02;49961.84;;;-144.39;83.13
74529;BME280;63009;52.584;5.932;2024-01-25T07:41:28;49963.84;;;-144.39;82.94
74529;BME280;63009;52.584;5.932;2024-01-25T07:43:53;49975.88;;;-144.39;83.65
74529;BME280;63009;52.584;5.932;2024-01-25T07:46:21;49963.84;;;-144.39;83.53
74529;BME280;63009;52.584;5.932;2024-01-25T07:48:47;49991.91;;;-144.39;83.44
74529;BME280;63009;52.584;5.932;2024-01-25T07:51:13;49973.88;;;-144.39;83.85
74529;BME280;63009;52.584;5.932;2024-01-25T07:53:39;49969.84;;;-144.39;83.81
74529;BME280;63009;52.584;5.932;2024-01-25T07:56:06;49939.78;;;-144.39;84.10
74529;BME280;63009;52.584;5.932;2024-01-25T07:58:32;49973.88;;;-144.39;84.17
74529;BME280;63009;52.584;5.932;2024-01-25T08:00:58;49949.78;;;-144.39;84.30
74529;BME280;63009;52.584;5.932;2024-01-25T08:03:23;49971.84;;;-144.39;84.18
74529;BME280;63009;52.584;5.932;2024-01-25T08:05:48;49929.75;;;-144.39;84.06
74529;BME280;63009;52.584;5.932;2024-01-25T08:08:14;49945.78;;;-144.39;84.15
74529;BME280;63009;52.584;5.932;2024-01-25T08:10:39;49947.78;;;-144.39;84.19
74529;BME280;63009;52.584;5.932;2024-01-25T08:13:04;49959.81;;;-144.39;84.40
74529;BME280;63009;52.584;5.932;2024-01-25T08:15:30;49951.81;;;-144.39;84.34
74529;BME280;63009;52.584;5.932;2024-01-25T08:17:55;49967.84;;;-144.39;84.40
74529;BME280;63009;52.584;5.932;2024-01-25T08:20:20;49943.78;;;-144.39;84.85
74529;BME280;63009;52.584;5.932;2024-01-25T08:22:46;49915.69;;;-144.39;84.56
74529;BME280;63009;52.584;5.932;2024-01-25T08:25:11;49989.91;;;-144.39;84.26
74529;BME280;63009;52.584;5.932;2024-01-25T08:27:39;49959.81;;;-144.39;84.11
74529;BME280;63009;52.584;5.932;2024-01-25T08:30:05;49961.84;;;-144.39;84.43
74529;BME280;63009;52.584;5.932;2024-01-25T08:32:30;49955.81;;;-144.39;84.49
74529;BME280;63009;52.584;5.932;2024-01-25T08:34:56;49975.88;;;-144.39;84.23
74529;BME280;63009;52.584;5.932;2024-01-25T08:37:21;49947.78;;;-144.39;84.55
74529;BME280;63009;52.584;5.932;2024-01-25T08:39:46;49929.75;;;-144.39;84.50
74529;BME280;63009;52.584;5.932;2024-01-25T08:42:16;49995.94;;;-144.39;84.19
74529;BME280;63009;52.584;5.932;2024-01-25T08:44:42;49945.78;;;-144.39;84.61
74529;BME280;63009;52.584;5.932;2024-01-25T08:47:14;49953.81;;;-144.39;84.30
74529;BME280;63009;52.584;5.932;2024-01-25T08:49:39;49945.78;;;-144.39;84.40
74529;BME280;63009;52.584;5.932;2024-01-25T08:52:04;49959.81;;;-144.39;84.21
74529;BME280;63009;52.584;5.932;2024-01-25T08:54:31;49943.78;;;-144.39;84.15
74529;BME280;63009;52.584;5.932;2024-01-25T08:56:57;49943.78;;;-144.39;83.88
74529;BME280;63009;52.584;5.932;2024-01-25T08:59:22;49917.72;;;-144.39;83.48
74529;BME280;63009;52.584;5.932;2024-01-25T09:01:47;49981.88;;;-144.39;83.80
74529;BME280;63009;52.584;5.932;2024-01-25T09:04:13;49941.78;;;-144.39;83.81
74529;BME280;63009;52.584;5.932;2024-01-25T09:06:38;49951.81;;;-144.39;83.79
74529;BME280;63009;52.584;5.932;2024-01-25T09:09:04;49935.75;;;-144.39;83.77
74529;BME280;63009;52.584;5.932;2024-01-25T09:11:30;49961.84;;;-144.39;83.55
74529;BME280;63009;52.584;5.932;2024-01-25T09:13:56;49975.88;;;-144.39;83.31
74529;BME280;63009;52.584;5.932;2024-01-25T09:16:21;49959.81;;;-144.39;83.54
74529;BME280;63009;52.584;5.932;2024-01-25T09:18:47;49971.84;;;-144.39;83.71
74529;BME280;63009;52.584;5.932;2024-01-25T09:21:13;49957.81;;;-144.39;83.39
74529;BME280;63009;52.584;5.932;2024-01-25T09:23:39;49975.88;;;-144.39;83.76
74529;BME280;63009;52.584;5.932;2024-01-25T09:26:04;49951.81;;;-144.39;83.31
74529;BME280;63009;52.584;5.932;2024-01-25T09:28:30;49957.81;;;-144.39;83.52
74529;BME280;63009;52.584;5.932;2024-01-25T09:30:55;49971.84;;;-144.39;83.05
74529;BME280;63009;52.584;5.932;2024-01-25T09:33:21;49937.75;;;-144.39;83.09
74529;BME280;63009;52.584;5.932;2024-01-25T09:35:48;49961.84;;;-144.39;82.91
74529;BME280;63009;52.584;5.932;2024-01-25T09:38:14;49967.84;;;-144.39;82.99
74529;BME280;63009;52.584;5.932;2024-01-25T09:40:39;49959.81;;;-144.39;83.22
74529;BME280;63009;52.584;5.932;2024-01-25T09:43:05;49935.75;;;-144.39;83.21
74529;BME280;63009;52.584;5.932;2024-01-25T09:45:31;49937.75;;;-144.39;83.03
74529;BME280;63009;52.584;5.932;2024-01-25T09:47:57;49957.81;;;-144.39;83.01
74529;BME280;63009;52.584;5.932;2024-01-25T09:50:23;49923.72;;;-144.39;82.88
74529;BME280;63009;52.584;5.932;2024-01-25T09:52:53;49993.91;;;-144.39;82.97
74529;BME280;63009;52.584;5.932;2024-01-25T09:55:24;49949.78;;;-144.39;82.18
74529;BME280;63009;52.584;5.932;2024-01-25T09:57:53;49955.81;;;-144.39;81.78
74529;BME280;63009;52.584;5.932;2024-01-25T10:00:19;49945.78;;;-144.39;81.82
74529;BME280;63009;52.584;5.932;2024-01-25T10:02:47;49973.88;;;-144.39;81.42
74529;BME280;63009;52.584;5.932;2024-01-25T10:05:14;49969.84;;;-144.39;81.39
74529;BME280;63009;52.584;5.932;2024-01-25T10:07:41;49955.81;;;-144.39;81.07
74529;BME280;63009;52.584;5.932;2024-01-25T10:10:07;49945.78;;;-144.39;80.50
74529;BME280;63009;52.584;5.932;2024-01-25T10:12:33;49983.91;;;-144.39;80.88
74529;BME280;63009;52.584;5.932;2024-01-25T10:14:59;49957.81;;;-144.39;80.22
74529;BME280;63009;52.584;5.932;2024-01-25T10:17:24;49973.88;;;-144.39;80.05
74529;BME280;63009;52.584;5.932;2024-01-25T10:19:50;49957.81;;;-144.39;80.06
74529;BME280;63009;52.584;5.932;2024-01-25T10:22:15;49961.84;;;-144.39;80.00
74529;BME280;63009;52.584;5.932;2024-01-25T10:24:41;49937.75;;;-144.39;79.17
74529;BME280;63009;52.584;5.932;2024-01-25T10:27:10;49967.84;;;-144.39;79.40
74529;BME280;63009;52.584;5.932;2024-01-25T10:29:36;49931.75;;;-144.39;79.04
74529;BME280;63009;52.584;5.932;2024-01-25T10:32:02;49939.78;;;-144.39;78.54
74529;BME280;63009;52.584;5.932;2024-01-25T10:34:28;49957.81;;;-144.39;78.72
74529;BME280;63009;52.584;5.932;2024-01-25T10:36:55;49955.81;;;-144.39;78.59
74529;BME280;63009;52.584;5.932;2024-01-25T10:39:21;49927.75;;;-144.39;78.72
74529;BME280;63009;52.584;5.932;2024-01-25T10:41:47;49983.91;;;-144.39;79.17
74529;BME280;63009;52.584;5.932;2024-01-25T10:44:16;49993.91;;;-144.39;79.35
74529;BME280;63009;52.584;5.932;2024-01-25T10:46:43;49953.81;;;-144.39;79.32
74529;BME280;63009;52.584;5.932;2024-01-25T10:49:11;49935.75;;;-144.39;78.93
74529;BME280;63009;52.584;5.932;2024-01-25T10:51:38;49973.88;;;-144.39;78.66
74529;BME280;63009;52.584;5.932;2024-01-25T10:54:05;49947.78;;;-144.39;78.49
74529;BME280;63009;52.584;5.932;2024-01-25T10:56:32;49931.75;;;-144.39;78.12
74529;BME280;63009;52.584;5.932;2024-01-25T10:58:59;49935.75;;;-144.39;77.74
74529;BME280;63009;52.584;5.932;2024-01-25T11:01:24;49967.84;;;-144.39;76.85
74529;BME280;63009;52.584;5.932;2024-01-25T11:03:52;49961.84;;;-144.39;76.93
74529;BME280;63009;52.584;5.932;2024-01-25T11:06:20;49963.84;;;-144.39;76.06
74529;BME280;63009;52.584;5.932;2024-01-25T11:08:47;49947.78;;;-144.39;75.37
74529;BME280;63009;52.584;5.932;2024-01-25T11:11:13;49931.75;;;-144.39;75.02
74529;BME280;63009;52.584;5.932;2024-01-25T11:13:40;49955.81;;;-144.39;74.38
74529;BME280;63009;52.584;5.932;2024-01-25T11:16:15;49983.91;;;-144.39;73.87
74529;BME280;63009;52.584;5.932;2024-01-25T11:18:51;49933.75;;;-144.39;73.99
74529;BME280;63009;52.584;5.932;2024-01-25T11:21:40;49955.81;;;-144.39;73.41
74529;BME280;63009;52.584;5.932;2024-01-25T11:24:11;49919.72;;;-144.39;73.29
74529;BME280;63009;52.584;5.932;2024-01-25T11:26:37;49953.81;;;-144.39;72.73
74529;BME280;63009;52.584;5.932;2024-01-25T11:29:03;49933.75;;;-144.39;72.14
74529;BME280;63009;52.584;5.932;2024-01-25T11:31:28;49955.81;;;-144.39;71.81
74529;BME280;63009;52.584;5.932;2024-01-25T11:33:57;49989.91;;;-144.39;70.86
74529;BME280;63009;52.584;5.932;2024-01-25T11:36:24;49961.84;;;-144.39;71.41
74529;BME280;63009;52.584;5.932;2024-01-25T11:38:50;49935.75;;;-144.39;72.18
74529;BME280;63009;52.584;5.932;2024-01-25T11:41:15;49929.75;;;-144.39;71.61
74529;BME280;63009;52.584;5.932;2024-01-25T11:43:41;49959.81;;;-144.39;71.67
74529;BME280;63009;52.584;5.932;2024-01-25T11:46:06;49951.81;;;-144.39;71.30
74529;BME280;63009;52.584;5.932;2024-01-25T11:48:32;49961.84;;;-144.39;71.02
74529;BME280;63009;52.584;5.932;2024-01-25T11:51:00;49955.81;;;-144.39;71.23
74529;BME280;63009;52.584;5.932;2024-01-25T11:53:26;49959.81;;;-144.39;71.56
74529;BME280;63009;52.584;5.932;2024-01-25T11:55:52;49953.81;;;-144.39;71.62
74529;BME280;63009;52.584;5.932;2024-01-25T11:58:20;49955.81;;;-144.39;71.56
74529;BME280;63009;52.584;5.932;2024-01-25T12:00:45;49987.91;;;-144.39;71.44
74529;BME280;63009;52.584;5.932;2024-01-25T12:03:11;49961.84;;;-144.39;71.05
74529;BME280;63009;52.584;5.932;2024-01-25T12:05:36;49989.91;;;-144.39;72.14
74529;BME280;63009;52.584;5.932;2024-01-25T12:08:08;49959.81;;;-144.39;73.22
74529;BME280;63009;52.584;5.932;2024-01-25T12:10:33;49935.75;;;-144.39;72.92
74529;BME280;63009;52.584;5.932;2024-01-25T12:13:00;49969.84;;;-144.39;72.07
74529;BME280;63009;52.584;5.932;2024-01-25T12:15:25;49977.88;;;-144.39;72.30
74529;BME280;63009;52.584;5.932;2024-01-25T12:17:50;49967.84;;;-144.39;71.94
74529;BME280;63009;52.584;5.932;2024-01-25T12:20:15;49981.88;;;-144.39;71.99
74529;BME280;63009;52.584;5.932;2024-01-25T12:22:41;49969.84;;;-144.39;71.04
74529;BME280;63009;52.584;5.932;2024-01-25T12:25:09;49941.78;;;-144.39;71.00
74529;BME280;63009;52.584;5.932;2024-01-25T12:27:35;49947.78;;;-144.39;70.16
74529;BME280;63009;52.584;5.932;2024-01-25T12:30:00;49979.88;;;-144.39;69.69
74529;BME280;63009;52.584;5.932;2024-01-25T12:32:26;49971.84;;;-144.39;70.44
74529;BME280;63009;52.584;5.932;2024-01-25T12:35:01;49931.75;;;-144.39;70.06
74529;BME280;63009;52.584;5.932;2024-01-25T12:37:27;49947.78;;;-144.39;70.68